Time;durP1;ratioP1;P1;durP2;ratioP2;P2;SDS_P1;SDS_P2;PMS_P1;PMS_P2;Temp;Humidity;BMP_temperature;BMP_pressure;BME280_temperature;BME280_humidity;BME280_pressure;Samples;Min_cycle;Max_cycle;Signal;HPM_P1;HPM_P2
2022/09/20 00:00:51;;;;;;;45.63;22.33;;;;;;;;;;5051498;27;89143;-63
2022/09/20 00:03:20;;;;;;;41.37;23.27;;;;;;;;;;5042985;27;88844;-63
2022/09/20 00:05:48;;;;;;;50.93;24.70;;;;;;;;;;5044928;27;87016;-68
2022/09/20 00:08:16;;;;;;;50.07;23.90;;;;;;;;;;5044426;27;87521;-68
2022/09/20 00:10:45;;;;;;;55.17;24.63;;;;;;;;;;5050248;27;90176;-67
2022/09/20 00:13:13;;;;;;;41.63;22.87;;;;;;;;;;5049616;27;89909;-69
2022/09/20 00:15:42;;;;;;;50.07;25.40;;;;;;;;;;5050719;27;87013;-68
2022/09/20 00:18:11;;;;;;;49.03;23.73;;;;;;;;;;5052096;27;87049;-67
2022/09/20 00:20:45;;;;;;;53.33;26.33;;;;;;;;;;5048888;27;89450;-69
2022/09/20 00:23:13;;;;;;;59.67;28.57;;;;;;;;;;5052673;27;90048;-67
2022/09/20 00:25:41;;;;;;;51.53;26.20;;;;;;;;;;5053420;27;87020;-68
2022/09/20 00:28:09;;;;;;;49.33;26.10;;;;;;;;;;5054468;27;86424;-68
2022/09/20 00:30:38;;;;;;;46.70;24.07;;;;;;;;;;5050581;27;87875;-69
2022/09/20 00:33:06;;;;;;;52.10;28.47;;;;;;;;;;5053219;27;88799;-68
2022/09/20 00:35:34;;;;;;;53.97;25.00;;;;;;;;;;5052469;27;88092;-68
2022/09/20 00:38:03;;;;;;;54.93;27.97;;;;;;;;;;5059542;27;87138;-66
2022/09/20 00:40:31;;;;;;;52.87;27.13;;;;;;;;;;5061443;27;88313;-68
2022/09/20 00:42:59;;;;;;;58.70;28.17;;;;;;;;;;5060731;27;88926;-67
2022/09/20 00:45:28;;;;;;;52.97;27.50;;;;;;;;;;5060918;27;87102;-69
2022/09/20 00:47:57;;;;;;;53.37;26.97;;;;;;;;;;5048872;27;87737;-68
2022/09/20 00:50:27;;;;;;;50.40;27.00;;;;;;;;;;5061684;27;89068;-69
2022/09/20 00:52:57;;;;;;;59.53;28.17;;;;;;;;;;5050695;27;88146;-68
2022/09/20 00:55:25;;;;;;;51.07;28.00;;;;;;;;;;5041335;28;87175;-67
2022/09/20 00:57:54;;;;;;;51.33;28.33;;;;;;;;;;5051160;27;86855;-66
2022/09/20 01:00:22;;;;;;;53.87;28.47;;;;;;;;;;5060426;27;89891;-63
2022/09/20 01:02:52;;;;;;;53.87;27.43;;;;;;;;;;5048024;27;89100;-65
2022/09/20 01:05:20;;;;;;;50.70;25.73;;;;;;;;;;5060875;27;86939;-66
2022/09/20 01:07:49;;;;;;;53.97;27.80;;;;;;;;;;5061572;27;86984;-68
2022/09/20 01:10:19;;;;;;;49.67;25.57;;;;;;;;;;5060899;27;88996;-68
2022/09/20 01:12:47;;;;;;;50.90;26.23;;;;;;;;;;5059898;27;88851;-67
2022/09/20 01:15:15;;;;;;;51.53;25.17;;;;;;;;;;5059422;27;87028;-69
2022/09/20 01:17:44;;;;;;;45.67;25.20;;;;;;;;;;5051050;27;86326;-67
2022/09/20 01:20:15;;;;;;;45.97;27.03;;;;;;;;;;5056678;27;87956;-66
2022/09/20 01:22:52;;;;;;;50.20;25.37;;;;;;;;;;5060443;27;88789;-66
2022/09/20 01:25:26;;;;;;;44.20;24.73;;;;;;;;;;5059774;27;87972;-66
2022/09/20 01:27:56;;;;;;;50.83;25.73;;;;;;;;;;5047652;27;88003;-66
2022/09/20 01:30:25;;;;;;;44.67;24.63;;;;;;;;;;5053043;27;88938;-65
2022/09/20 01:32:57;;;;;;;45.37;24.40;;;;;;;;;;5043942;27;88787;-66
2022/09/20 01:35:27;;;;;;;49.17;23.87;;;;;;;;;;5050533;27;88496;-67
2022/09/20 01:37:59;;;;;;;39.40;22.83;;;;;;;;;;5049002;27;86924;-66
2022/09/20 01:40:30;;;;;;;45.57;24.27;;;;;;;;;;5047700;27;89291;-67
2022/09/20 01:43:02;;;;;;;43.97;23.93;;;;;;;;;;5044763;27;87018;-67
2022/09/20 01:45:30;;;;;;;36.53;22.07;;;;;;;;;;5047490;27;87485;-67
2022/09/20 01:48:02;;;;;;;42.00;24.53;;;;;;;;;;5051533;27;87157;-66
2022/09/20 01:50:34;;;;;;;45.93;22.50;;;;;;;;;;5049306;27;89871;-67
2022/09/20 01:53:06;;;;;;;41.27;23.43;;;;;;;;;;5048725;27;89770;-66
2022/09/20 01:55:55;;;;;;;40.73;22.77;;;;;;;;;;5046181;27;88603;-67
2022/09/20 01:58:42;;;;;;;39.80;22.67;;;;;;;;;;5048468;27;87413;-67
2022/09/20 02:01:34;;;;;;;40.60;22.77;;;;;;;;;;5039574;27;88620;-68
2022/09/20 02:04:12;;;;;;;38.23;20.70;;;;;;;;;;4953564;28;87515;-66
2022/09/20 02:06:45;;;;;;;42.77;22.33;;;;;;;;;;5032774;28;87057;-66
2022/09/20 02:09:20;;;;;;;35.80;19.80;;;;;;;;;;5026632;27;86682;-66
2022/09/20 02:11:59;;;;;;;38.27;19.73;;;;;;;;;;5032756;28;88829;-66
2022/09/20 02:14:40;;;;;;;29.83;18.20;;;;;;;;;;5035534;28;87248;-66
2022/09/20 02:17:12;;;;;;;33.90;18.07;;;;;;;;;;5037684;28;88105;-67
2022/09/20 02:19:46;;;;;;;30.23;19.43;;;;;;;;;;5036029;28;87645;-66
2022/09/20 02:22:18;;;;;;;35.67;18.93;;;;;;;;;;5035313;28;89107;-68
2022/09/20 02:24:48;;;;;;;32.63;19.23;;;;;;;;;;5034653;28;88807;-67
2022/09/20 02:27:19;;;;;;;32.30;18.17;;;;;;;;;;5036213;28;87059;-67
2022/09/20 02:29:48;;;;;;;32.37;17.57;;;;;;;;;;5037814;28;87292;-67
2022/09/20 02:32:22;;;;;;;33.47;18.30;;;;;;;;;;5036829;28;89118;-67
2022/09/20 02:35:04;;;;;;;34.53;17.97;;;;;;;;;;5034000;28;87623;-67
2022/09/20 02:37:38;;;;;;;31.67;17.50;;;;;;;;;;5037912;28;87129;-66
2022/09/20 02:40:10;;;;;;;32.73;18.07;;;;;;;;;;5035782;28;87138;-66
2022/09/20 02:42:39;;;;;;;31.97;17.53;;;;;;;;;;5035345;28;90191;-66
2022/09/20 02:45:08;;;;;;;37.07;16.67;;;;;;;;;;5035671;28;89770;-68
2022/09/20 02:47:37;;;;;;;28.67;17.10;;;;;;;;;;5036583;28;87085;-67
2022/09/20 02:50:14;;;;;;;30.67;17.27;;;;;;;;;;5036328;28;86971;-67
2022/09/20 02:52:44;;;;;;;27.33;16.67;;;;;;;;;;5034717;28;88904;-67
2022/09/20 02:55:13;;;;;;;34.13;17.60;;;;;;;;;;5035445;28;88778;-67
2022/09/20 02:57:44;;;;;;;24.73;15.37;;;;;;;;;;5032041;28;87008;-65
2022/09/20 03:00:13;;;;;;;24.13;14.53;;;;;;;;;;5033117;28;86379;-65
2022/09/20 03:02:50;;;;;;;27.40;16.07;;;;;;;;;;5049635;27;89195;-66
2022/09/20 03:05:22;;;;;;;25.60;14.83;;;;;;;;;;5052573;27;88527;-66
2022/09/20 03:07:58;;;;;;;24.17;13.33;;;;;;;;;;5054972;27;88117;-65
2022/09/20 03:10:32;;;;;;;22.93;14.37;;;;;;;;;;5054492;27;87095;-64
2022/09/20 03:13:14;;;;;;;26.43;14.50;;;;;;;;;;5053231;27;89061;-65
2022/09/20 03:15:46;;;;;;;25.43;14.07;;;;;;;;;;5054972;27;89019;-67
2022/09/20 03:18:15;;;;;;;30.10;16.60;;;;;;;;;;5053918;27;87431;-66
2022/09/20 03:20:47;;;;;;;26.17;14.13;;;;;;;;;;5051675;27;87604;-65
2022/09/20 03:23:21;;;;;;;23.10;14.70;;;;;;;;;;5052616;27;88942;-65
2022/09/20 03:25:53;;;;;;;24.73;14.77;;;;;;;;;;5055638;27;88867;-65
2022/09/20 03:28:47;;;;;;;26.17;13.97;;;;;;;;;;5054278;27;87133;-65
2022/09/20 03:31:19;;;;;;;23.17;13.50;;;;;;;;;;5053143;27;87180;-65
2022/09/20 03:33:50;;;;;;;24.60;12.20;;;;;;;;;;5052568;27;90016;-66
2022/09/20 03:36:25;;;;;;;24.17;13.93;;;;;;;;;;5050254;27;88536;-65
2022/09/20 03:39:02;;;;;;;27.07;14.13;;;;;;;;;;5054859;27;88992;-66
2022/09/20 03:41:40;;;;;;;24.53;12.33;;;;;;;;;;5052709;27;89167;-65
2022/09/20 03:44:23;;;;;;;21.30;13.40;;;;;;;;;;5052854;27;89062;-65
2022/09/20 03:46:52;;;;;;;23.17;12.93;;;;;;;;;;5033109;27;89275;-66
2022/09/20 03:49:31;;;;;;;23.40;13.23;;;;;;;;;;5056307;27;86907;-68
2022/09/20 03:52:01;;;;;;;19.10;11.53;;;;;;;;;;5052449;27;86397;-67
2022/09/20 03:54:47;;;;;;;23.53;12.67;;;;;;;;;;5055337;27;89034;-67
2022/09/20 03:57:37;;;;;;;16.97;11.30;;;;;;;;;;5054399;27;88778;-67
2022/09/20 04:00:13;;;;;;;17.90;10.97;;;;;;;;;;5050333;27;88115;-67
2022/09/20 04:02:54;;;;;;;18.80;11.57;;;;;;;;;;5053384;27;87236;-67
2022/09/20 04:05:24;;;;;;;15.87;10.17;;;;;;;;;;5053396;27;88317;-66
2022/09/20 04:07:56;;;;;;;17.37;10.00;;;;;;;;;;5053363;27;88787;-67
2022/09/20 04:10:27;;;;;;;15.83;10.30;;;;;;;;;;5051988;27;88133;-66
2022/09/20 04:13:00;;;;;;;16.57;11.07;;;;;;;;;;5053786;27;87207;-61
2022/09/20 04:15:31;;;;;;;20.20;10.27;;;;;;;;;;5057482;27;88758;-61
2022/09/20 04:18:01;;;;;;;19.20;10.47;;;;;;;;;;5052768;27;88924;-62
2022/09/20 04:20:32;;;;;;;12.80;8.40;;;;;;;;;;5052571;27;86989;-61
2022/09/20 04:23:02;;;;;;;17.23;9.63;;;;;;;;;;5057764;27;87074;-61
2022/09/20 04:25:30;;;;;;;21.70;9.67;;;;;;;;;;5052754;27;89509;-62
2022/09/20 04:27:59;;;;;;;16.70;8.53;;;;;;;;;;5056181;27;89879;-62
2022/09/20 04:30:29;;;;;;;11.27;6.93;;;;;;;;;;5059149;27;87005;-61
2022/09/20 04:32:59;;;;;;;12.73;8.03;;;;;;;;;;5061670;27;89308;-62
2022/09/20 04:38:20;;;;;;;10.07;6.70;;;;;;;;;;5051857;27;88939;-61
2022/09/20 04:40:55;;;;;;;12.87;6.80;;;;;;;;;;5061941;27;87116;-61
2022/09/20 04:43:31;;;;;;;12.87;6.83;;;;;;;;;;5062177;27;86628;-61
2022/09/20 04:46:19;;;;;;;14.73;7.23;;;;;;;;;;5060884;27;87953;-61
2022/09/20 04:49:03;;;;;;;12.77;7.73;;;;;;;;;;5061503;27;88889;-61
2022/09/20 04:51:50;;;;;;;12.47;6.50;;;;;;;;;;5058247;27;88009;-61
2022/09/20 04:54:28;;;;;;;10.70;6.37;;;;;;;;;;5061946;27;87360;-61
2022/09/20 04:57:00;;;;;;;13.00;5.93;;;;;;;;;;5061490;27;88976;-62
2022/09/20 04:59:32;;;;;;;12.20;5.30;;;;;;;;;;5060692;27;87632;-61
2022/09/20 05:02:27;;;;;;;13.87;6.93;;;;;;;;;;5061450;27;87016;-62
2022/09/20 05:05:18;;;;;;;10.00;6.53;;;;;;;;;;5061613;27;87121;-62
2022/09/20 05:07:55;;;;;;;10.30;5.97;;;;;;;;;;5046708;27;88949;-61
2022/09/20 05:10:30;;;;;;;8.77;5.33;;;;;;;;;;5051615;27;90494;-61
2022/09/20 05:13:06;;;;;;;11.00;5.30;;;;;;;;;;5047264;27;86953;-62
2022/09/20 05:15:40;;;;;;;10.17;5.77;;;;;;;;;;5060728;27;87107;-62
2022/09/20 05:18:16;;;;;;;11.37;6.33;;;;;;;;;;5060792;27;89465;-63
2022/09/20 05:20:46;;;;;;;10.27;5.70;;;;;;;;;;5061607;27;89768;-62
2022/09/20 05:23:19;;;;;;;8.40;5.87;;;;;;;;;;5060688;27;87179;-62
2022/09/20 05:26:02;;;;;;;9.93;5.53;;;;;;;;;;5062222;27;86885;-63
2022/09/20 05:28:32;;;;;;;10.63;5.53;;;;;;;;;;5060926;27;89291;-63
2022/09/20 05:31:01;;;;;;;8.23;5.03;;;;;;;;;;5061247;27;88816;-73
2022/09/20 05:33:31;;;;;;;8.60;5.03;;;;;;;;;;5061293;27;86980;-63
2022/09/20 05:36:02;;;;;;;9.43;4.80;;;;;;;;;;5061262;27;86710;-63
2022/09/20 05:38:31;;;;;;;7.10;4.00;;;;;;;;;;5061321;27;88719;-63
2022/09/20 05:41:07;;;;;;;6.73;5.37;;;;;;;;;;5055156;27;89593;-63
2022/09/20 05:43:36;;;;;;;6.53;4.03;;;;;;;;;;5054155;27;87928;-63
2022/09/20 05:46:05;;;;;;;8.23;4.60;;;;;;;;;;5052650;27;87162;-63
2022/09/20 05:48:37;;;;;;;11.77;4.77;;;;;;;;;;5059963;27;89180;-62
2022/09/20 05:51:06;;;;;;;9.03;5.00;;;;;;;;;;5054130;27;88937;-63
2022/09/20 05:53:40;;;;;;;10.30;5.13;;;;;;;;;;5058028;27;87146;-62
2022/09/20 05:56:12;;;;;;;6.60;4.23;;;;;;;;;;5052951;27;86894;-61
2022/09/20 05:58:45;;;;;;;6.47;4.37;;;;;;;;;;5055787;27;89108;-61
2022/09/20 06:01:15;;;;;;;8.37;4.67;;;;;;;;;;5051330;27;88430;-61
2022/09/20 06:03:45;;;;;;;6.87;4.10;;;;;;;;;;5047174;27;86948;-61
2022/09/20 06:06:14;;;;;;;5.43;4.37;;;;;;;;;;5049988;27;87290;-61
2022/09/20 06:08:57;;;;;;;7.60;4.83;;;;;;;;;;5047766;27;90043;-60
2022/09/20 06:11:43;;;;;;;8.47;4.70;;;;;;;;;;5038555;27;89882;-61
2022/09/20 06:14:18;;;;;;;10.33;6.40;;;;;;;;;;5036208;27;87283;-62
2022/09/20 06:16:47;;;;;;;13.97;7.10;;;;;;;;;;5040697;27;87155;-62
2022/09/20 06:19:19;;;;;;;14.60;8.27;;;;;;;;;;5050284;27;88769;-62
2022/09/20 06:21:50;;;;;;;19.67;9.60;;;;;;;;;;5048188;27;87800;-61
2022/09/20 06:24:30;;;;;;;23.43;10.77;;;;;;;;;;5045698;27;87245;-62
2022/09/20 06:26:59;;;;;;;29.90;14.07;;;;;;;;;;5043730;27;86143;-62
2022/09/20 06:29:30;;;;;;;29.30;14.40;;;;;;;;;;5045254;27;89258;-61
2022/09/20 06:31:58;;;;;;;32.43;15.17;;;;;;;;;;5042568;27;88833;-62
2022/09/20 06:34:26;;;;;;;34.77;16.53;;;;;;;;;;5039868;27;88022;-62
2022/09/20 06:42:28;;;;;;;40.60;17.73;;;;;;;;;;5052925;27;88844;-59
2022/09/20 06:44:58;;;;;;;42.40;18.57;;;;;;;;;;5041706;28;87981;-59
2022/09/20 06:47:27;;;;;;;35.97;17.43;;;;;;;;;;5039885;28;87344;-60
2022/09/20 06:49:55;;;;;;;46.53;20.90;;;;;;;;;;5042396;28;87852;-60
2022/09/20 06:52:23;;;;;;;49.07;19.27;;;;;;;;;;5041758;28;88917;-60
2022/09/20 06:54:53;;;;;;;44.50;18.13;;;;;;;;;;5041293;27;88922;-60
2022/09/20 06:57:22;;;;;;;43.20;18.77;;;;;;;;;;5040996;27;87006;-59
2022/09/20 06:59:51;;;;;;;43.50;19.93;;;;;;;;;;5041302;28;90004;-59
2022/09/20 07:02:20;;;;;;;39.40;18.50;;;;;;;;;;5049231;27;89924;-60
2022/09/20 07:04:52;;;;;;;38.90;18.97;;;;;;;;;;5059406;27;87169;-60
2022/09/20 07:07:20;;;;;;;41.83;18.63;;;;;;;;;;5055082;27;87473;-59
2022/09/20 07:09:50;;;;;;;40.40;20.10;;;;;;;;;;5041942;28;89331;-61
2022/09/20 07:12:18;;;;;;;57.63;21.80;;;;;;;;;;5047845;27;88907;-60
2022/09/20 07:14:46;;;;;;;41.77;19.70;;;;;;;;;;5044680;27;87031;-61
2022/09/20 07:17:14;;;;;;;41.83;19.53;;;;;;;;;;5042611;27;86311;-62
2022/09/20 07:19:44;;;;;;;54.30;23.50;;;;;;;;;;5041705;27;89425;-60
2022/09/20 07:22:13;;;;;;;38.00;18.73;;;;;;;;;;5040950;27;88975;-62
2022/09/20 07:24:43;;;;;;;48.60;20.73;;;;;;;;;;5041820;28;88005;-62
2022/09/20 07:27:12;;;;;;;46.73;21.20;;;;;;;;;;5042657;28;87001;-61
2022/09/20 07:29:40;;;;;;;44.10;20.33;;;;;;;;;;5041973;28;89165;-61
2022/09/20 07:32:09;;;;;;;37.47;18.93;;;;;;;;;;5050198;27;90769;-61
2022/09/20 07:34:37;;;;;;;33.33;17.70;;;;;;;;;;5049643;27;87105;-61
2022/09/20 07:37:07;;;;;;;45.60;20.87;;;;;;;;;;5045804;27;87918;-60
2022/09/20 07:39:35;;;;;;;41.83;20.10;;;;;;;;;;5042511;28;88759;-61
2022/09/20 07:42:05;;;;;;;50.43;20.87;;;;;;;;;;5042374;28;88562;-61
2022/09/20 07:44:33;;;;;;;41.87;18.37;;;;;;;;;;5042872;28;86972;-60
2022/09/20 07:47:02;;;;;;;38.77;19.50;;;;;;;;;;5042000;28;87038;-61
2022/09/20 07:49:30;;;;;;;33.87;17.60;;;;;;;;;;5041478;28;89841;-61
2022/09/20 07:51:58;;;;;;;33.20;16.67;;;;;;;;;;5041583;28;89818;-59
2022/09/20 07:54:28;;;;;;;34.30;16.17;;;;;;;;;;5042749;28;86970;-61
2022/09/20 07:56:56;;;;;;;30.20;16.87;;;;;;;;;;5042785;27;86884;-61
2022/09/20 07:59:24;;;;;;;27.40;14.03;;;;;;;;;;5043442;27;89172;-61
2022/09/20 08:01:53;;;;;;;28.63;13.87;;;;;;;;;;5048884;27;88727;-61
2022/09/20 08:04:22;;;;;;;29.10;16.20;;;;;;;;;;5058836;27;87710;-60
2022/09/20 08:06:50;;;;;;;25.17;13.13;;;;;;;;;;5059225;27;86519;-60
2022/09/20 08:09:19;;;;;;;22.53;12.40;;;;;;;;;;5059733;27;88087;-60
2022/09/20 08:11:49;;;;;;;28.13;11.83;;;;;;;;;;5061453;27;88505;-60
2022/09/20 08:14:17;;;;;;;21.50;10.97;;;;;;;;;;5061734;27;88011;-60
2022/09/20 08:16:47;;;;;;;21.13;12.77;;;;;;;;;;5061807;27;87110;-61
2022/09/20 08:19:16;;;;;;;26.60;11.80;;;;;;;;;;5061127;27;89199;-60
2022/09/20 08:21:44;;;;;;;20.80;11.53;;;;;;;;;;5061429;27;91204;-61
2022/09/20 08:24:14;;;;;;;18.53;10.80;;;;;;;;;;5062374;27;87022;-61
2022/09/20 08:26:43;;;;;;;20.33;11.07;;;;;;;;;;5061833;27;87306;-60
2022/09/20 08:29:14;;;;;;;19.20;9.70;;;;;;;;;;5061953;27;89085;-61
2022/09/20 08:31:42;;;;;;;23.97;10.67;;;;;;;;;;5062153;27;88802;-61
2022/09/20 08:34:11;;;;;;;17.53;9.70;;;;;;;;;;5060616;27;87012;-62
2022/09/20 08:36:40;;;;;;;17.20;9.50;;;;;;;;;;5062813;27;87088;-62
2022/09/20 08:39:09;;;;;;;18.10;9.03;;;;;;;;;;5062557;27;92100;-62
2022/09/20 08:41:57;;;;;;;13.93;7.50;;;;;;;;;;5042113;27;89471;-63
2022/09/20 08:44:28;;;;;;;12.87;7.07;;;;;;;;;;5042586;28;87058;-63
2022/09/20 08:47:01;;;;;;;14.27;6.80;;;;;;;;;;5042348;27;87008;-62
2022/09/20 08:49:30;;;;;;;8.37;5.33;;;;;;;;;;5061880;27;87678;-62
2022/09/20 08:51:58;;;;;;;14.63;5.13;;;;;;;;;;5057935;27;87732;-63
2022/09/20 08:54:26;;;;;;;7.53;5.03;;;;;;;;;;5051980;27;86996;-62
2022/09/20 08:57:02;;;;;;;9.47;5.27;;;;;;;;;;5083281;27;86433;-62
2022/09/20 08:59:31;;;;;;;7.50;4.67;;;;;;;;;;5082419;27;89140;-62
2022/09/20 09:02:00;;;;;;;9.57;5.00;;;;;;;;;;5072174;27;87627;-62
2022/09/20 09:04:32;;;;;;;7.30;4.07;;;;;;;;;;5062215;27;88112;-62
2022/09/20 09:07:01;;;;;;;6.07;3.87;;;;;;;;;;5061389;27;86931;-62
2022/09/20 09:09:29;;;;;;;5.20;3.60;;;;;;;;;;5061281;27;89162;-62
2022/09/20 09:11:58;;;;;;;7.20;3.87;;;;;;;;;;5061820;27;88653;-62
2022/09/20 09:17:14;;;;;;;7.60;4.03;;;;;;;;;;5062036;27;87072;-62
2022/09/20 09:19:43;;;;;;;7.70;3.57;;;;;;;;;;5060928;27;88818;-62
2022/09/20 09:22:13;;;;;;;5.93;3.30;;;;;;;;;;5061845;27;88680;-62
2022/09/20 09:24:41;;;;;;;5.37;3.00;;;;;;;;;;5062147;27;86973;-62
2022/09/20 09:27:15;;;;;;;5.97;3.23;;;;;;;;;;5061160;27;87490;-62
2022/09/20 09:29:49;;;;;;;3.43;2.57;;;;;;;;;;5061283;27;90158;-61
2022/09/20 09:32:23;;;;;;;5.80;2.80;;;;;;;;;;5061189;27;89559;-62
2022/09/20 09:34:51;;;;;;;4.40;2.37;;;;;;;;;;5057291;27;87761;-62
2022/09/20 09:37:24;;;;;;;3.63;2.60;;;;;;;;;;5062063;27;86948;-62
2022/09/20 09:40:09;;;;;;;2.67;1.97;;;;;;;;;;5061779;27;89401;-63
2022/09/20 09:42:38;;;;;;;5.10;2.60;;;;;;;;;;5061474;27;87698;-62
2022/09/20 09:45:13;;;;;;;5.00;3.03;;;;;;;;;;5060713;27;87045;-62
2022/09/20 09:47:43;;;;;;;7.23;2.33;;;;;;;;;;5061467;27;86297;-62
2022/09/20 09:50:13;;;;;;;7.03;3.13;;;;;;;;;;5059185;27;89042;-62
2022/09/20 09:52:41;;;;;;;5.70;3.33;;;;;;;;;;5060620;27;88496;-62
2022/09/20 09:55:09;;;;;;;3.60;2.53;;;;;;;;;;5060724;27;87985;-62
2022/09/20 09:57:41;;;;;;;4.70;2.23;;;;;;;;;;5050512;27;87176;-65
2022/09/20 10:00:11;;;;;;;4.90;2.47;;;;;;;;;;5061860;27;89314;-65
2022/09/20 10:03:01;;;;;;;2.97;1.70;;;;;;;;;;5045335;27;88884;-65
2022/09/20 10:05:30;;;;;;;5.37;2.27;;;;;;;;;;5041854;28;87027;-65
2022/09/20 10:08:01;;;;;;;2.30;1.80;;;;;;;;;;5041692;28;87233;-65
2022/09/20 10:10:31;;;;;;;2.60;1.50;;;;;;;;;;5041836;28;87727;-65
2022/09/20 10:13:03;;;;;;;3.40;2.13;;;;;;;;;;5041770;28;88795;-65
2022/09/20 10:15:33;;;;;;;3.23;1.43;;;;;;;;;;5041797;28;86902;-64
2022/09/20 10:18:10;;;;;;;2.00;1.40;;;;;;;;;;5041606;28;86938;-64
2022/09/20 10:20:46;;;;;;;1.77;1.23;;;;;;;;;;5040600;28;89764;-64
2022/09/20 10:23:18;;;;;;;2.80;1.47;;;;;;;;;;5041197;28;89876;-64
2022/09/20 10:26:08;;;;;;;1.33;1.20;;;;;;;;;;5041339;28;87057;-64
2022/09/20 10:28:47;;;;;;;1.53;1.30;;;;;;;;;;5041339;28;87024;-64
2022/09/20 10:31:18;;;;;;;1.70;1.30;;;;;;;;;;5039953;27;91493;-65
2022/09/20 10:33:55;;;;;;;2.00;1.10;;;;;;;;;;5043165;28;87708;-68
2022/09/20 10:36:24;;;;;;;3.00;1.20;;;;;;;;;;5044293;28;87039;-64
2022/09/20 10:38:54;;;;;;;2.70;1.50;;;;;;;;;;5044852;28;86308;-65
2022/09/20 10:44:17;;;;;;;1.80;1.30;;;;;;;;;;5043232;28;88862;-64
2022/09/20 10:46:50;;;;;;;5.77;2.50;;;;;;;;;;5043610;28;87856;-63
2022/09/20 10:49:23;;;;;;;1.77;1.20;;;;;;;;;;5043833;28;86991;-66
2022/09/20 10:51:56;;;;;;;1.53;1.27;;;;;;;;;;5042183;28;90280;-64
2022/09/20 10:54:27;;;;;;;0.97;0.90;;;;;;;;;;5044227;28;89529;-64
2022/09/20 10:56:59;;;;;;;1.03;0.70;;;;;;;;;;5044178;28;87037;-64
2022/09/20 10:59:33;;;;;;;1.20;1.10;;;;;;;;;;5044324;28;87029;-64
2022/09/20 11:02:06;;;;;;;1.23;0.80;;;;;;;;;;5053790;27;88526;-64
2022/09/20 11:04:58;;;;;;;1.73;0.70;;;;;;;;;;5064587;27;88256;-64
2022/09/20 11:07:28;;;;;;;1.17;0.77;;;;;;;;;;5064583;27;86909;-64
2022/09/20 11:09:57;;;;;;;2.73;0.80;;;;;;;;;;5063731;27;87982;-63
2022/09/20 11:12:27;;;;;;;2.00;0.90;;;;;;;;;;5053198;27;88837;-64
2022/09/20 11:14:56;;;;;;;0.83;0.60;;;;;;;;;;5064262;27;88740;-64
2022/09/20 11:17:25;;;;;;;2.23;0.67;;;;;;;;;;5062038;27;87093;-64
2022/09/20 11:19:56;;;;;;;0.57;0.50;;;;;;;;;;5063034;27;86963;-64
2022/09/20 11:22:27;;;;;;;0.90;0.70;;;;;;;;;;5063049;27;92003;-64
2022/09/20 11:24:56;;;;;;;0.70;0.50;;;;;;;;;;5063810;27;88953;-64
2022/09/20 11:27:28;;;;;;;1.30;0.73;;;;;;;;;;5063932;27;87062;-64
2022/09/20 11:29:57;;;;;;;7.13;1.10;;;;;;;;;;5064520;27;86229;-64
2022/09/20 11:32:27;;;;;;;3.27;0.90;;;;;;;;;;5063655;27;89175;-65
2022/09/20 11:34:55;;;;;;;2.77;0.70;;;;;;;;;;5062911;27;88557;-65
2022/09/20 11:37:26;;;;;;;2.07;0.37;;;;;;;;;;5063374;27;88073;-65
2022/09/20 11:39:54;;;;;;;0.60;0.50;;;;;;;;;;5063637;27;87031;-65
2022/09/20 11:42:23;;;;;;;1.03;0.50;;;;;;;;;;5063002;27;88821;-65
2022/09/20 11:44:51;;;;;;;0.67;0.60;;;;;;;;;;5063476;27;88662;-66
2022/09/20 11:47:21;;;;;;;1.00;0.57;;;;;;;;;;5064117;27;86831;-64
2022/09/20 11:50:17;;;;;;;0.80;0.70;;;;;;;;;;5063599;27;86939;-64
2022/09/20 11:52:51;;;;;;;0.50;0.50;;;;;;;;;;5062712;27;88927;-63
2022/09/20 11:55:29;;;;;;;0.80;0.80;;;;;;;;;;5063171;27;87664;-64
2022/09/20 11:58:04;;;;;;;1.07;0.70;;;;;;;;;;5063902;27;87587;-62
2022/09/20 12:00:33;;;;;;;0.80;0.77;;;;;;;;;;5063309;27;87093;-64
2022/09/20 12:03:02;;;;;;;1.80;0.77;;;;;;;;;;5044713;27;89869;-65
2022/09/20 12:05:32;;;;;;;0.63;0.50;;;;;;;;;;5055877;27;89835;-65
2022/09/20 12:08:02;;;;;;;2.63;0.67;;;;;;;;;;5063718;27;87009;-63
2022/09/20 12:10:32;;;;;;;0.53;0.50;;;;;;;;;;5055633;27;86975;-63
2022/09/20 12:13:01;;;;;;;2.00;0.80;;;;;;;;;;5042631;27;89046;-66
2022/09/20 12:15:30;;;;;;;3.67;1.00;;;;;;;;;;5043469;27;88083;-66
2022/09/20 12:18:02;;;;;;;1.10;1.00;;;;;;;;;;5056357;27;86927;-64
2022/09/20 12:20:54;;;;;;;0.57;0.57;;;;;;;;;;5051294;27;86269;-64
2022/09/20 12:23:42;;;;;;;2.00;0.90;;;;;;;;;;5042216;28;89329;-65
2022/09/20 12:26:12;;;;;;;4.13;0.97;;;;;;;;;;5054688;27;88756;-65
2022/09/20 12:28:40;;;;;;;0.80;0.67;;;;;;;;;;5059972;27;87813;-64
2022/09/20 12:31:28;;;;;;;0.90;0.87;;;;;;;;;;5060551;27;87344;-64
2022/09/20 12:33:57;;;;;;;0.97;0.80;;;;;;;;;;5062129;27;89116;-64
2022/09/20 12:36:25;;;;;;;1.43;1.00;;;;;;;;;;5046098;27;90602;-64
2022/09/20 12:38:58;;;;;;;1.17;0.70;;;;;;;;;;5056712;27;86912;-64
2022/09/20 12:41:28;;;;;;;1.33;0.70;;;;;;;;;;5046416;27;87057;-64
2022/09/20 12:44:00;;;;;;;2.40;0.90;;;;;;;;;;5054472;27;92093;-63
2022/09/20 12:46:33;;;;;;;0.80;0.80;;;;;;;;;;5046965;27;88833;-65
2022/09/20 12:54:57;;;;;;;1.30;0.93;;;;;;;;;;5025728;27;90115;-63
2022/09/20 12:57:34;;;;;;;0.87;0.70;;;;;;;;;;5050398;27;92478;-62
2022/09/20 13:00:05;;;;;;;0.77;0.63;;;;;;;;;;5062671;27;87055;-63
2022/09/20 13:02:46;;;;;;;1.17;0.70;;;;;;;;;;5050045;27;87019;-63
2022/09/20 13:05:30;;;;;;;0.50;0.43;;;;;;;;;;5050773;27;89136;-63
2022/09/20 13:08:01;;;;;;;0.67;0.60;;;;;;;;;;5062089;27;88839;-63
2022/09/20 13:10:31;;;;;;;0.57;0.57;;;;;;;;;;5047321;27;86916;-63
2022/09/20 13:13:01;;;;;;;1.67;0.70;;;;;;;;;;5042295;28;86301;-63
2022/09/20 13:15:31;;;;;;;3.03;0.73;;;;;;;;;;5047680;27;88722;-63
2022/09/20 13:18:00;;;;;;;2.80;0.70;;;;;;;;;;5062036;27;88866;-63
2022/09/20 13:20:30;;;;;;;0.53;0.53;;;;;;;;;;5051841;27;88138;-62
2022/09/20 13:22:58;;;;;;;3.90;0.70;;;;;;;;;;5062622;27;86851;-63
2022/09/20 13:25:28;;;;;;;3.10;0.67;;;;;;;;;;5042402;27;89111;-63
2022/09/20 13:27:58;;;;;;;2.27;0.90;;;;;;;;;;5042289;28;88929;-63
2022/09/20 13:30:31;;;;;;;1.40;0.40;;;;;;;;;;5042487;28;87047;-63
2022/09/20 13:33:14;;;;;;;0.97;0.60;;;;;;;;;;5041805;28;86940;-63
2022/09/20 13:35:43;;;;;;;0.60;0.60;;;;;;;;;;5040518;28;88902;-63
2022/09/20 13:38:11;;;;;;;0.77;0.47;;;;;;;;;;5042189;27;88866;-62
2022/09/20 13:40:41;;;;;;;0.53;0.50;;;;;;;;;;5040862;27;88441;-62
2022/09/20 13:43:16;;;;;;;3.70;0.80;;;;;;;;;;5048563;27;87231;-62
2022/09/20 13:45:53;;;;;;;0.97;0.50;;;;;;;;;;5041460;27;90776;-63
2022/09/20 13:48:24;;;;;;;0.57;0.47;;;;;;;;;;5042702;27;90221;-63
2022/09/20 13:50:52;;;;;;;1.70;0.33;;;;;;;;;;5056651;27;87090;-62
2022/09/20 13:53:21;;;;;;;0.83;0.40;;;;;;;;;;5055865;27;87171;-63
2022/09/20 13:56:09;;;;;;;2.33;0.53;;;;;;;;;;5061099;27;89514;-63
2022/09/20 13:58:37;;;;;;;1.23;0.50;;;;;;;;;;5043735;27;91480;-63
2022/09/20 14:01:08;;;;;;;1.80;0.37;;;;;;;;;;5049009;27;87301;-63
2022/09/20 14:03:37;;;;;;;2.67;0.53;;;;;;;;;;5041441;28;86268;-63
2022/09/20 14:06:08;;;;;;;2.90;0.60;;;;;;;;;;5041943;27;87729;-63
2022/09/20 14:08:38;;;;;;;0.30;0.30;;;;;;;;;;5044337;28;88803;-63
2022/09/20 14:11:07;;;;;;;0.77;0.50;;;;;;;;;;5045114;27;87861;-63
2022/09/20 14:13:37;;;;;;;0.30;0.30;;;;;;;;;;5044687;28;87003;-63
2022/09/20 14:16:07;;;;;;;1.10;0.60;;;;;;;;;;5057114;27;89156;-63
2022/09/20 14:18:36;;;;;;;0.70;0.50;;;;;;;;;;5054266;27;88853;-63
2022/09/20 14:21:04;;;;;;;0.63;0.40;;;;;;;;;;5045944;27;87147;-63
2022/09/20 14:23:32;;;;;;;1.60;0.47;;;;;;;;;;5044079;28;87687;-63
2022/09/20 14:26:07;;;;;;;0.30;0.30;;;;;;;;;;5056104;27;89109;-63
2022/09/20 14:28:35;;;;;;;1.60;0.50;;;;;;;;;;5047587;27;88324;-63
2022/09/20 14:31:09;;;;;;;0.70;0.30;;;;;;;;;;5044250;27;87098;-63
2022/09/20 14:33:39;;;;;;;0.43;0.30;;;;;;;;;;5024650;28;87077;-63
2022/09/20 14:36:10;;;;;;;1.27;0.60;;;;;;;;;;5038064;27;89082;-64
2022/09/20 14:38:39;;;;;;;0.83;0.60;;;;;;;;;;5044463;27;89767;-64
2022/09/20 14:41:07;;;;;;;0.70;0.40;;;;;;;;;;5044510;28;87074;-64
2022/09/20 14:43:35;;;;;;;0.43;0.30;;;;;;;;;;5044707;28;87015;-63
2022/09/20 14:46:05;;;;;;;0.33;0.33;;;;;;;;;;5045478;27;88785;-64
2022/09/20 14:48:36;;;;;;;1.50;0.50;;;;;;;;;;5044361;27;88937;-62
2022/09/20 14:51:13;;;;;;;0.23;0.23;;;;;;;;;;5045442;27;87002;-63
2022/09/20 14:53:41;;;;;;;0.67;0.40;;;;;;;;;;5045437;27;86279;-63
2022/09/20 14:56:10;;;;;;;0.30;0.30;;;;;;;;;;5051125;27;89047;-62
2022/09/20 14:59:05;;;;;;;0.20;0.20;;;;;;;;;;5044000;28;88897;-64
2022/09/20 15:01:34;;;;;;;0.63;0.40;;;;;;;;;;5024637;27;88190;-64
2022/09/20 15:04:08;;;;;;;0.20;0.20;;;;;;;;;;5064121;27;86905;-64
2022/09/20 15:06:38;;;;;;;1.00;0.63;;;;;;;;;;5062154;27;89034;-64
2022/09/20 15:09:07;;;;;;;3.53;0.40;;;;;;;;;;5064179;27;88868;-64
2022/09/20 15:11:35;;;;;;;0.77;0.57;;;;;;;;;;5064654;27;87138;-63
2022/09/20 15:14:03;;;;;;;0.40;0.40;;;;;;;;;;5064754;27;86837;-64
2022/09/20 15:16:32;;;;;;;0.67;0.67;;;;;;;;;;5048189;27;88096;-64
2022/09/20 15:19:00;;;;;;;1.10;0.47;;;;;;;;;;5043716;28;88953;-64